createdAt,value
2022-11-01T17:02:26.916Z,65.50
2022-11-01T17:03:59.241Z,62.25
2022-11-01T17:05:30.943Z,64.50
2022-11-01T17:07:02.635Z,64.75
2022-11-01T17:08:34.412Z,65.25
2022-11-01T17:10:22.286Z,62.00
2022-11-01T17:11:54.438Z,69.75
2022-11-01T17:13:26.229Z,72.00
2022-11-01T17:14:58.058Z,68.25
2022-11-01T17:16:29.873Z,62.50
2022-11-01T17:18:05.433Z,66.00
2022-11-01T17:19:38.853Z,71.50
2022-11-01T17:21:11.844Z,66.25
2022-11-01T17:22:43.790Z,57.25
2022-11-01T17:24:16.207Z,62.75
2022-11-01T17:25:48.316Z,63.75
2022-11-01T17:27:20.248Z,69.50
2022-11-01T17:28:52.498Z,70.25
2022-11-01T17:30:24.424Z,61.25
2022-11-01T17:31:56.391Z,67.00
2022-11-01T17:33:28.277Z,71.50
2022-11-01T17:35:00.036Z,78.20
2022-11-01T17:36:31.857Z,72.00
2022-11-01T17:38:04.806Z,75.60
2022-11-01T17:39:36.958Z,80.00
2022-11-01T17:41:09.631Z,80.20
2022-11-01T17:42:41.401Z,77.20
2022-11-01T17:44:13.326Z,75.80
2022-11-01T17:45:45.670Z,80.40
2022-11-01T17:47:17.620Z,82.60
2022-11-01T17:48:50.818Z,80.40
2022-11-01T17:50:22.748Z,78.00
2022-11-01T17:51:56.976Z,73.00
2022-11-01T17:53:28.802Z,75.60
2022-11-01T17:55:00.577Z,70.20
2022-11-01T17:56:32.388Z,74.20
2022-11-01T17:58:04.607Z,73.80
2022-11-01T17:59:36.619Z,76.80
2022-11-01T18:01:08.489Z,77.40
2022-11-01T18:02:40.562Z,76.60
2022-11-01T18:04:12.421Z,77.40
2022-11-01T18:05:44.278Z,82.20
2022-11-01T18:07:16.961Z,83.20
2022-11-01T18:08:51.372Z,83.80
2022-11-01T18:10:51.830Z,81.60
2022-11-01T18:12:33.253Z,86.25
2022-11-01T18:14:15.098Z,85.50
2022-11-01T18:16:18.426Z,86.50
2022-11-01T18:18:09.621Z,85.00
2022-11-01T18:19:51.101Z,80.50
2022-11-01T18:21:32.792Z,85.25
2022-11-01T18:23:06.785Z,88.50
2022-11-01T18:24:43.765Z,83.75
2022-11-01T18:26:19.385Z,84.50
2022-11-01T18:27:51.375Z,86.50
2022-11-01T18:29:24.134Z,80.20
2022-11-01T18:31:03.190Z,85.00
2022-11-01T18:32:38.578Z,79.00
2022-11-01T18:34:42.004Z,76.50
2022-11-01T18:36:16.071Z,78.80
2022-11-01T18:38:13.393Z,78.20
2022-11-01T18:40:04.105Z,76.40
2022-11-01T18:41:35.823Z,79.40
2022-11-01T18:43:10.441Z,73.00
2022-11-01T18:44:42.103Z,68.40
2022-11-01T18:46:25.030Z,72.40
2022-11-01T18:48:01.485Z,73.75
2022-11-01T18:49:33.495Z,72.50
2022-11-01T18:51:06.047Z,70.00
2022-11-01T18:52:37.785Z,67.75
2022-11-01T18:54:09.392Z,67.00
2022-11-01T18:55:41.780Z,60.50
2022-11-01T18:57:17.437Z,59.50
2022-11-01T18:58:50.474Z,62.75
2022-11-01T19:00:22.228Z,62.50
2022-11-01T19:01:59.299Z,56.50
2022-11-01T19:03:31.141Z,57.00
2022-11-01T19:05:14.833Z,56.00
2022-11-01T19:06:46.608Z,52.50
2022-11-01T19:08:23.630Z,54.50
2022-11-01T19:09:56.828Z,53.00
2022-11-01T19:11:29.880Z,52.50
2022-11-01T19:13:01.570Z,54.25
2022-11-01T19:14:33.536Z,52.00
2022-11-01T19:16:05.674Z,51.75
2022-11-01T19:17:38.994Z,56.00
2022-11-01T19:19:14.403Z,46.00
2022-11-01T19:20:53.797Z,39.75
2022-11-01T19:22:40.232Z,37.75
2022-11-01T19:24:35.103Z,34.80
2022-11-01T19:26:27.783Z,31.40
2022-11-01T19:28:02.641Z,31.80
2022-11-01T19:29:34.489Z,31.20
2022-11-01T19:31:08.958Z,30.20
2022-11-01T19:32:40.653Z,31.60
2022-11-01T19:34:16.896Z,31.20
2022-11-01T19:35:50.859Z,30.40
2022-11-01T19:37:28.355Z,31.20
2022-11-01T19:39:02.215Z,29.20
2022-11-01T19:40:35.949Z,30.00
2022-11-01T19:42:29.028Z,28.80
2022-11-01T19:44:04.999Z,26.40
2022-11-01T19:45:37.985Z,26.00
2022-11-01T19:47:37.017Z,26.20
2022-11-01T19:49:38.320Z,23.40
2022-11-01T19:51:22.781Z,24.00
2022-11-01T19:52:57.965Z,14.40
2022-11-01T19:54:29.905Z,22.40
2022-11-01T19:56:02.255Z,23.40
2022-11-01T19:57:34.636Z,27.20
2022-11-01T19:59:11.449Z,29.60
2022-11-01T20:00:43.141Z,30.40
2022-11-01T20:02:17.000Z,32.40
2022-11-01T20:03:51.307Z,32.20
2022-11-01T20:05:25.306Z,31.60
2022-11-01T20:07:09.679Z,32.00
2022-11-01T20:08:41.468Z,33.60
2022-11-01T20:10:15.077Z,34.80
2022-11-01T20:11:46.863Z,33.00
2022-11-01T20:13:18.640Z,33.60
2022-11-01T20:14:50.361Z,40.25
2022-11-01T20:16:22.166Z,45.00
2022-11-01T20:17:53.932Z,47.50
2022-11-01T20:19:25.795Z,52.75
2022-11-01T20:20:58.716Z,50.50
2022-11-01T20:22:30.438Z,47.50
2022-11-01T20:24:04.000Z,51.50
2022-11-01T20:25:35.644Z,52.25
2022-11-01T20:27:07.585Z,51.25
2022-11-01T20:28:39.290Z,55.00
2022-11-01T20:30:11.150Z,54.00
2022-11-01T20:31:43.167Z,50.50
2022-11-01T20:33:16.354Z,61.75
2022-11-01T20:34:48.416Z,59.75
2022-11-01T20:36:20.168Z,60.50
2022-11-01T20:37:52.420Z,58.50
2022-11-01T20:39:25.350Z,59.75
2022-11-01T20:40:57.057Z,59.00
2022-11-01T20:42:28.842Z,60.00
2022-11-01T20:44:00.999Z,56.25
2022-11-01T20:45:34.883Z,55.25
2022-11-01T20:47:06.550Z,49.50
2022-11-01T20:48:38.324Z,57.00
2022-11-01T20:50:10.662Z,53.50
2022-11-01T20:51:43.357Z,54.50
2022-11-01T20:53:15.359Z,51.50
2022-11-01T20:54:47.049Z,54.25
2022-11-01T20:56:19.652Z,57.50
2022-11-01T20:57:53.739Z,61.00
2022-11-01T20:59:25.524Z,67.25
2022-11-01T21:00:57.795Z,68.00
2022-11-01T21:02:29.844Z,68.60
2022-11-01T21:04:01.612Z,65.75
2022-11-01T21:05:36.655Z,71.75
2022-11-01T21:07:14.712Z,70.40
2022-11-01T21:08:47.227Z,70.25
2022-11-01T21:10:32.016Z,67.40
2022-11-01T21:12:05.627Z,71.60
2022-11-01T21:13:39.206Z,68.25
2022-11-01T21:15:25.730Z,72.60
2022-11-01T21:16:58.988Z,72.00
2022-11-01T21:18:32.514Z,76.80
2022-11-01T21:20:05.084Z,72.40
2022-11-01T21:21:43.884Z,69.75
2022-11-01T21:23:35.633Z,68.75
2022-11-01T21:25:08.608Z,70.40
2022-11-01T21:26:42.020Z,64.75
2022-11-01T21:28:33.366Z,70.25
2022-11-01T21:30:15.358Z,68.50
2022-11-01T21:31:47.285Z,69.25
2022-11-01T21:33:37.920Z,65.75
2022-11-01T21:35:21.273Z,63.25
2022-11-01T21:36:53.070Z,66.75
2022-11-01T21:38:34.190Z,64.25
2022-11-01T21:40:14.509Z,63.50
2022-11-01T21:41:48.274Z,59.75
2022-11-01T21:43:24.533Z,58.75
2022-11-01T21:44:56.404Z,60.25
2022-11-01T21:46:28.233Z,63.00
2022-11-01T21:48:01.600Z,54.75
2022-11-01T21:49:33.614Z,68.50
2022-11-01T21:51:05.429Z,71.25
2022-11-01T21:52:37.161Z,74.60
2022-11-01T21:54:08.815Z,74.40
2022-11-01T21:55:40.705Z,76.80
2022-11-01T21:57:12.534Z,75.20
2022-11-01T21:58:44.251Z,78.40
2022-11-01T22:00:16.428Z,73.40
2022-11-01T22:01:48.355Z,76.20
2022-11-01T22:03:21.012Z,78.75
2022-11-01T22:04:52.933Z,77.00
2022-11-01T22:06:24.660Z,77.60
2022-11-01T22:07:56.373Z,80.00
2022-11-01T22:09:28.255Z,75.00
2022-11-01T22:11:00.006Z,72.20
2022-11-01T22:12:32.162Z,78.25
2022-11-01T22:14:04.082Z,72.20
2022-11-01T22:15:35.676Z,74.40
2022-11-01T22:17:07.501Z,113.00
2022-11-01T22:18:39.235Z,81.25
2022-11-01T22:20:11.220Z,87.25
2022-11-01T22:21:43.093Z,81.25
2022-11-01T22:23:14.802Z,79.25
2022-11-01T22:24:47.062Z,79.40
2022-11-01T22:26:18.894Z,76.60
2022-11-01T22:27:50.736Z,69.60
2022-11-01T22:29:22.512Z,82.00
2022-11-01T22:30:54.238Z,79.25
2022-11-01T22:32:25.970Z,83.75
2022-11-01T22:33:57.818Z,79.50
2022-11-01T22:35:29.590Z,81.25
2022-11-01T22:37:01.343Z,88.00
2022-11-01T22:38:38.618Z,83.50
2022-11-01T22:40:13.736Z,91.75
2022-11-01T22:41:45.448Z,97.25
2022-11-01T22:43:18.069Z,91.00
2022-11-01T22:44:49.885Z,89.00
2022-11-01T22:46:30.121Z,87.75
2022-11-01T22:48:01.908Z,90.75
2022-11-01T22:49:40.991Z,95.75
2022-11-01T22:51:24.072Z,95.00
2022-11-01T22:52:55.835Z,106.25
2022-11-01T22:55:12.667Z,93.00
2022-11-01T22:56:44.689Z,86.75
2022-11-01T22:58:35.807Z,82.75
2022-11-01T23:00:39.217Z,76.80
2022-11-01T23:02:27.841Z,79.75
2022-11-01T23:03:59.819Z,90.25
2022-11-01T23:05:31.552Z,86.00
2022-11-01T23:07:05.466Z,94.75
2022-11-01T23:08:38.711Z,90.75
2022-11-01T23:10:23.824Z,90.75
2022-11-01T23:12:14.216Z,90.50
2022-11-01T23:14:04.430Z,95.25
2022-11-01T23:15:36.784Z,90.50
2022-11-01T23:17:27.696Z,89.75
2022-11-01T23:19:03.622Z,91.00
2022-11-01T23:20:35.340Z,97.25
2022-11-01T23:22:13.198Z,93.00
2022-11-01T23:23:45.529Z,91.75
2022-11-01T23:25:17.239Z,91.50
2022-11-01T23:26:48.885Z,93.00
2022-11-01T23:28:20.598Z,91.50
2022-11-01T23:29:52.969Z,89.25
2022-11-01T23:31:26.720Z,91.50
2022-11-01T23:32:58.860Z,92.50
2022-11-01T23:34:30.609Z,86.50
